createdAt,value
2022-11-27T00:00:32.970Z,97.38
2022-11-27T00:01:32.271Z,97.28
2022-11-27T00:02:35.336Z,97.28
2022-11-27T00:03:33.292Z,97.17
2022-11-27T00:04:32.313Z,97.17
2022-11-27T00:05:32.172Z,97.07
2022-11-27T00:06:34.037Z,97.07
2022-11-27T00:07:32.108Z,96.97
2022-11-27T00:08:32.112Z,97.07
2022-11-27T00:09:32.088Z,97.07
2022-11-27T00:10:32.129Z,97.07
2022-11-27T00:11:32.930Z,97.07
2022-11-27T00:12:32.085Z,97.07
2022-11-27T00:13:32.029Z,96.97
2022-11-27T00:14:32.404Z,96.86
2022-11-27T00:15:32.070Z,96.97
2022-11-27T00:16:32.065Z,96.97
2022-11-27T00:17:31.966Z,96.97
2022-11-27T00:18:31.985Z,96.97
2022-11-27T00:19:31.973Z,96.97
2022-11-27T00:20:31.915Z,96.97
2022-11-27T00:21:32.247Z,96.86
2022-11-27T00:22:31.885Z,96.76
2022-11-27T00:23:31.886Z,96.76
2022-11-27T00:24:31.891Z,96.55
2022-11-27T00:25:31.951Z,96.45
2022-11-27T00:26:37.319Z,96.45
2022-11-27T00:27:32.853Z,96.45
2022-11-27T00:28:31.836Z,96.45
2022-11-27T00:29:31.822Z,96.34
2022-11-27T00:30:31.860Z,96.34
2022-11-27T00:31:31.902Z,96.24
2022-11-27T00:32:31.866Z,96.24
2022-11-27T00:33:31.751Z,96.14
2022-11-27T00:34:31.778Z,96.14
2022-11-27T00:35:31.794Z,96.14
2022-11-27T00:36:31.729Z,96.14
2022-11-27T00:37:31.775Z,96.14
2022-11-27T00:38:35.942Z,96.24
2022-11-27T00:39:32.743Z,96.14
2022-11-27T00:40:31.661Z,96.14
2022-11-27T00:41:31.697Z,96.03
2022-11-27T00:42:31.664Z,96.03
2022-11-27T00:43:39.835Z,96.24
2022-11-27T00:44:34.521Z,96.34
2022-11-27T00:45:31.680Z,96.34
2022-11-27T00:46:32.751Z,96.24
2022-11-27T00:47:31.588Z,96.24
2022-11-27T00:48:31.650Z,96.14
2022-11-27T00:49:31.664Z,96.14
2022-11-27T00:50:31.547Z,96.14
2022-11-27T00:51:31.530Z,96.14
2022-11-27T00:52:31.598Z,95.94
2022-11-27T00:53:31.509Z,95.83
2022-11-27T00:54:31.480Z,95.73
2022-11-27T00:55:31.475Z,95.83
2022-11-27T00:56:31.486Z,95.73
2022-11-27T00:57:31.536Z,95.62
2022-11-27T00:58:31.440Z,95.62
2022-11-27T00:59:31.397Z,95.62
2022-11-27T01:00:31.464Z,95.62
2022-11-27T01:01:31.487Z,95.62
2022-11-27T01:02:31.476Z,95.52
2022-11-27T01:03:31.472Z,95.52
2022-11-27T01:04:31.427Z,95.52
2022-11-27T01:05:31.374Z,95.62
2022-11-27T01:06:31.376Z,95.73
2022-11-27T01:07:31.313Z,95.73
2022-11-27T01:08:31.314Z,95.73
2022-11-27T01:09:31.310Z,95.62
2022-11-27T01:10:31.291Z,95.62
2022-11-27T01:11:31.317Z,95.62
2022-11-27T01:12:31.261Z,95.62
2022-11-27T01:13:31.232Z,95.62
2022-11-27T01:14:31.226Z,95.73
2022-11-27T01:15:31.186Z,95.83
2022-11-27T01:16:31.359Z,95.94
2022-11-27T01:17:31.163Z,96.08
2022-11-27T01:18:31.185Z,96.14
2022-11-27T01:19:31.224Z,96.29
2022-11-27T01:20:31.203Z,96.34
2022-11-27T01:21:31.142Z,96.14
2022-11-27T01:22:31.221Z,96.03
2022-11-27T01:23:31.092Z,95.94
2022-11-27T01:24:31.156Z,95.94
2022-11-27T01:25:31.052Z,95.94
2022-11-27T01:26:31.150Z,96.03
2022-11-27T01:27:31.064Z,96.14
2022-11-27T01:28:31.051Z,96.14
2022-11-27T01:29:31.174Z,96.14
2022-11-27T01:30:31.058Z,96.19
2022-11-27T01:31:31.151Z,96.03
2022-11-27T01:32:31.088Z,95.94
2022-11-27T01:33:31.031Z,95.83
2022-11-27T01:34:30.996Z,95.73
2022-11-27T01:35:33.636Z,95.73
2022-11-27T01:36:31.015Z,95.52
2022-11-27T01:37:31.054Z,95.62
2022-11-27T01:38:30.957Z,95.56
2022-11-27T01:39:30.912Z,95.62
2022-11-27T01:40:30.908Z,95.62
2022-11-27T01:41:30.917Z,95.52
2022-11-27T01:42:30.960Z,95.62
2022-11-27T01:43:30.966Z,95.62
2022-11-27T01:44:30.848Z,95.42
2022-11-27T01:45:30.818Z,95.42
2022-11-27T01:46:31.011Z,95.31
2022-11-27T01:47:30.882Z,95.31
2022-11-27T01:48:30.803Z,95.21
2022-11-27T01:49:30.849Z,95.10
2022-11-27T01:50:30.794Z,95.10
2022-11-27T01:51:30.795Z,95.10
2022-11-27T01:52:30.738Z,95.00
2022-11-27T01:53:30.773Z,94.90
2022-11-27T01:54:30.716Z,94.90
2022-11-27T01:55:30.696Z,95.00
2022-11-27T01:56:30.704Z,95.00
2022-11-27T01:57:30.815Z,95.00
2022-11-27T02:37:13.653Z,95.15
2022-11-27T02:40:39.433Z,95.36
2022-11-27T02:43:43.911Z,95.36
2022-11-27T02:45:56.718Z,95.40
2022-11-27T02:46:56.296Z,95.50
2022-11-27T02:47:56.329Z,95.40
2022-11-27T02:48:57.117Z,95.50
2022-11-27T02:50:08.944Z,95.50
2022-11-27T02:57:57.354Z,95.40
2022-11-27T03:00:33.713Z,95.50
2022-11-27T03:07:06.035Z,95.50
2022-11-27T03:08:05.870Z,95.61
2022-11-27T03:18:42.797Z,95.71
2022-11-27T03:26:54.970Z,95.61
2022-11-27T04:26:36.327Z,94.37
2022-11-27T04:31:47.298Z,94.57
2022-11-27T04:34:25.439Z,94.37
2022-11-27T04:42:18.247Z,94.26
2022-11-27T04:43:26.203Z,94.26
2022-11-27T04:54:22.773Z,93.64
2022-11-27T05:04:43.978Z,93.85
2022-11-27T05:41:25.284Z,94.12
2022-11-27T06:58:42.052Z,93.76
2022-11-27T06:59:41.959Z,93.87
2022-11-27T07:00:41.978Z,93.87
2022-11-27T07:01:41.952Z,93.76
2022-11-27T07:02:41.920Z,93.76
2022-11-27T07:03:41.895Z,93.87
2022-11-27T07:04:42.161Z,93.87
2022-11-27T07:05:41.971Z,93.76
2022-11-27T07:06:41.887Z,93.66
2022-11-27T07:07:43.949Z,93.76
2022-11-27T07:08:41.898Z,93.66
2022-11-27T07:09:41.810Z,93.66
2022-11-27T07:10:41.860Z,93.66
2022-11-27T07:11:41.814Z,93.66
2022-11-27T07:12:41.839Z,93.66
2022-11-27T07:13:41.791Z,93.66
2022-11-27T07:14:41.996Z,93.66
2022-11-27T07:15:41.744Z,93.66
2022-11-27T07:16:41.864Z,93.76
2022-11-27T07:17:41.800Z,93.87
2022-11-27T07:18:41.756Z,93.87
2022-11-27T07:19:41.706Z,93.87
2022-11-27T07:20:41.725Z,93.76
2022-11-27T07:21:41.732Z,93.87
2022-11-27T07:22:41.659Z,93.82
2022-11-27T07:23:41.752Z,93.87
2022-11-27T07:24:41.977Z,93.93
2022-11-27T07:25:41.654Z,93.82
2022-11-27T07:26:41.592Z,93.62
2022-11-27T07:27:41.601Z,93.51
2022-11-27T07:28:41.657Z,93.62
2022-11-27T07:29:41.595Z,93.62
2022-11-27T07:30:41.604Z,93.51
2022-11-27T07:31:41.560Z,93.51
2022-11-27T07:32:41.516Z,93.51
2022-11-27T07:33:41.518Z,93.41
2022-11-27T07:34:41.783Z,93.41
2022-11-27T07:35:41.498Z,93.41
2022-11-27T07:36:41.463Z,93.30
2022-11-27T07:37:41.517Z,93.41
2022-11-27T07:38:41.501Z,93.41
2022-11-27T07:40:01.318Z,93.41
2022-11-27T07:40:42.436Z,93.51
2022-11-27T07:41:42.411Z,93.51
2022-11-27T07:42:41.384Z,93.41
2022-11-27T07:43:41.450Z,93.41
2022-11-27T07:44:41.636Z,93.30
2022-11-27T07:45:41.394Z,93.41
2022-11-27T07:46:41.348Z,93.41
2022-11-27T07:47:41.371Z,93.26
2022-11-27T07:48:41.434Z,93.16
2022-11-27T07:49:41.339Z,93.16
2022-11-27T07:50:41.300Z,93.26
2022-11-27T07:51:41.260Z,93.26
2022-11-27T07:52:42.322Z,93.26
2022-11-27T07:53:41.292Z,93.16
2022-11-27T07:54:41.513Z,93.16
2022-11-27T07:55:41.239Z,93.26
2022-11-27T07:56:41.190Z,93.05
2022-11-27T07:57:41.211Z,93.05
2022-11-27T07:58:41.298Z,92.95
2022-11-27T07:59:47.012Z,92.95
2022-11-27T08:00:42.219Z,92.95
2022-11-27T08:01:41.163Z,92.95
2022-11-27T08:02:41.158Z,92.95
2022-11-27T08:03:41.171Z,92.95
2022-11-27T08:04:41.421Z,93.12
2022-11-27T08:05:41.153Z,92.91
2022-11-27T08:06:42.267Z,92.70
2022-11-27T08:07:41.257Z,92.70
2022-11-27T08:08:41.048Z,92.60
2022-11-27T08:09:41.123Z,92.60
2022-11-27T08:13:13.163Z,92.40
2022-11-27T08:14:12.646Z,92.29
2022-11-27T08:15:12.653Z,92.29
2022-11-27T08:16:12.669Z,92.40
2022-11-27T08:17:12.508Z,92.40
2022-11-27T08:18:12.621Z,92.29
2022-11-27T08:19:24.477Z,92.29
2022-11-27T08:21:27.295Z,92.04
2022-11-27T08:22:27.103Z,91.98
2022-11-27T08:23:38.051Z,91.94
2022-11-27T08:24:27.069Z,92.04
2022-11-27T08:25:27.074Z,92.14
2022-11-27T08:26:27.041Z,92.25
2022-11-27T08:27:27.031Z,92.14
2022-11-27T08:28:27.071Z,92.14
2022-11-27T08:29:32.584Z,92.25
2022-11-27T08:30:28.019Z,92.35
2022-11-27T08:31:27.046Z,92.55
2022-11-27T08:32:26.966Z,92.46
2022-11-27T08:33:27.082Z,92.55
2022-11-27T08:34:28.829Z,92.51
2022-11-27T08:35:27.032Z,92.51
2022-11-27T08:36:26.926Z,92.31
2022-11-27T08:37:26.906Z,92.21
2022-11-27T08:38:26.925Z,92.00
2022-11-27T08:39:27.124Z,91.79
2022-11-27T08:40:27.182Z,91.79
2022-11-27T08:41:26.934Z,91.89
2022-11-27T08:42:26.964Z,91.89
2022-11-27T08:43:26.926Z,91.69
2022-11-27T08:44:26.889Z,91.58
2022-11-27T08:45:26.927Z,91.69
2022-11-27T08:46:26.842Z,91.69
2022-11-27T08:47:26.831Z,91.38
2022-11-27T08:48:26.842Z,91.17
2022-11-27T08:49:26.788Z,90.86
2022-11-27T08:50:26.750Z,90.55
2022-11-27T08:51:38.002Z,90.61
2022-11-27T08:52:27.873Z,90.61
2022-11-27T08:53:26.826Z,90.51
2022-11-27T08:54:26.739Z,90.51
2022-11-27T08:55:26.772Z,90.20
2022-11-27T08:56:26.694Z,90.31
2022-11-27T08:57:26.671Z,90.20
2022-11-27T08:58:26.682Z,90.10
2022-11-27T08:59:26.754Z,89.79
2022-11-27T09:00:28.301Z,90.00
2022-11-27T09:01:26.770Z,89.89
2022-11-27T09:02:26.593Z,89.79
2022-11-27T09:03:26.592Z,90.00
2022-11-27T09:04:26.660Z,89.89
2022-11-27T09:05:26.611Z,89.79
2022-11-27T09:06:26.669Z,89.79
2022-11-27T09:07:26.565Z,89.79
2022-11-27T09:08:26.619Z,90.00
2022-11-27T09:09:26.618Z,90.10
2022-11-27T09:10:26.484Z,90.41
2022-11-27T09:11:26.482Z,90.26
2022-11-27T09:12:27.239Z,90.06
2022-11-27T09:13:27.456Z,89.95
2022-11-27T09:14:26.601Z,89.54
2022-11-27T09:15:26.495Z,89.65
2022-11-27T09:16:26.449Z,89.23
2022-11-27T09:17:26.422Z,89.23
2022-11-27T09:18:26.518Z,89.34
2022-11-27T09:19:26.376Z,89.44
2022-11-27T09:20:26.358Z,89.44
2022-11-27T09:21:26.367Z,89.54
2022-11-27T09:22:26.359Z,89.65
2022-11-27T09:23:26.300Z,89.65
2022-11-27T09:24:26.371Z,89.44
2022-11-27T09:25:26.317Z,89.54
2022-11-27T09:26:26.335Z,89.23
2022-11-27T09:27:26.282Z,89.03
2022-11-27T09:28:31.171Z,89.23
2022-11-27T09:29:27.243Z,89.03
2022-11-27T09:30:26.276Z,89.13
2022-11-27T09:31:26.285Z,88.99
2022-11-27T09:32:26.300Z,88.89
2022-11-27T09:33:26.276Z,88.99
2022-11-27T09:34:26.236Z,89.09
2022-11-27T09:35:26.282Z,89.19
2022-11-27T09:36:26.214Z,89.19
2022-11-27T09:37:26.175Z,89.09
2022-11-27T09:38:26.185Z,89.19
2022-11-27T09:39:26.123Z,88.78
2022-11-27T09:40:26.180Z,88.68
2022-11-27T09:41:26.192Z,88.57
2022-11-27T09:42:26.077Z,88.68
2022-11-27T09:43:26.089Z,88.57
2022-11-27T09:44:26.086Z,87.85
2022-11-27T09:45:26.092Z,87.96
2022-11-27T09:46:26.110Z,88.02
2022-11-27T09:47:26.016Z,88.02
2022-11-27T09:48:26.055Z,88.23
2022-11-27T09:49:26.028Z,88.33
2022-11-27T09:50:25.983Z,88.43
2022-11-27T09:51:26.009Z,88.33
2022-11-27T09:52:25.939Z,88.33
2022-11-27T09:53:25.939Z,88.02
2022-11-27T09:54:25.979Z,88.12
2022-11-27T09:55:25.912Z,87.81
2022-11-27T09:56:25.937Z,88.02
2022-11-27T09:57:25.887Z,87.81
2022-11-27T09:58:25.935Z,87.60
2022-11-27T09:59:25.841Z,87.40
2022-11-27T10:00:25.868Z,86.95
2022-11-27T10:01:32.131Z,86.95
2022-11-27T10:02:26.884Z,86.85
2022-11-27T10:03:25.900Z,87.05
2022-11-27T10:04:25.836Z,86.85
2022-11-27T10:05:25.842Z,86.64
2022-11-27T10:06:25.768Z,86.64
2022-11-27T10:07:25.794Z,86.64
2022-11-27T10:08:25.774Z,87.05
2022-11-27T10:09:26.282Z,86.64
2022-11-27T10:10:25.773Z,86.33
2022-11-27T10:11:25.773Z,86.54
2022-11-27T10:12:25.742Z,86.54
2022-11-27T10:13:25.659Z,86.74
2022-11-27T10:14:25.689Z,86.74
2022-11-27T10:15:25.673Z,86.54
2022-11-27T10:16:25.654Z,86.74
2022-11-27T10:17:25.643Z,87.05
2022-11-27T10:18:25.637Z,86.85
2022-11-27T10:19:25.623Z,86.95
2022-11-27T10:20:25.621Z,87.05
2022-11-27T10:21:25.566Z,87.05
2022-11-27T10:22:25.571Z,86.85
2022-11-27T10:23:25.579Z,86.95
2022-11-27T10:24:25.580Z,86.95
2022-11-27T10:25:25.575Z,86.64
2022-11-27T10:26:25.511Z,86.43
2022-11-27T10:27:25.512Z,86.54
2022-11-27T10:28:25.593Z,86.54
2022-11-27T10:29:25.484Z,86.54
2022-11-27T10:30:25.436Z,86.43
2022-11-27T10:31:25.537Z,86.43
2022-11-27T10:33:26.469Z,86.19
2022-11-27T10:34:25.435Z,86.29
2022-11-27T10:35:25.381Z,86.08
2022-11-27T10:36:25.388Z,85.98
2022-11-27T10:37:25.399Z,85.98
2022-11-27T10:38:25.358Z,85.57
2022-11-27T10:39:25.344Z,85.57
2022-11-27T10:40:25.349Z,85.26
2022-11-27T10:41:48.159Z,85.68
2022-11-27T10:42:26.299Z,85.78
2022-11-27T10:43:25.311Z,85.88
2022-11-27T10:44:25.291Z,85.98
2022-11-27T10:45:25.251Z,85.78
2022-11-27T10:46:25.290Z,85.26
2022-11-27T10:47:28.553Z,85.47
2022-11-27T10:48:26.247Z,85.26
2022-11-27T10:49:25.254Z,85.36
2022-11-27T10:50:25.192Z,85.36
2022-11-27T10:51:25.170Z,85.57
2022-11-27T10:52:25.150Z,85.26
2022-11-27T10:53:25.179Z,85.36
2022-11-27T10:54:25.151Z,85.57
2022-11-27T10:55:25.146Z,85.36
2022-11-27T10:56:25.142Z,85.36
2022-11-27T10:57:25.158Z,85.78
2022-11-27T10:58:25.096Z,85.78
2022-11-27T10:59:28.683Z,85.78
2022-11-27T11:00:26.127Z,85.68
2022-11-27T11:01:25.240Z,85.74
2022-11-27T11:02:25.115Z,85.84
2022-11-27T11:03:25.047Z,85.33
2022-11-27T11:04:37.467Z,85.22
2022-11-27T11:05:50.475Z,85.02
2022-11-27T11:06:26.319Z,84.81
2022-11-27T11:07:25.145Z,85.02
2022-11-27T11:08:24.988Z,84.50
2022-11-27T11:09:24.975Z,84.61
2022-11-27T11:10:24.953Z,85.02
2022-11-27T11:11:24.962Z,83.99
2022-11-27T11:12:24.948Z,84.61
2022-11-27T11:13:24.952Z,84.40
2022-11-27T11:14:24.899Z,84.40
2022-11-27T11:15:24.882Z,84.20
2022-11-27T11:16:27.307Z,83.89
2022-11-27T11:17:25.056Z,83.78
2022-11-27T11:18:24.829Z,84.20
2022-11-27T11:19:24.878Z,83.89
2022-11-27T11:20:24.821Z,83.78
2022-11-27T11:21:24.864Z,83.78
2022-11-27T11:22:24.856Z,83.58
2022-11-27T11:23:24.781Z,83.99
2022-11-27T11:24:24.744Z,83.37
2022-11-27T11:25:24.771Z,83.75
2022-11-27T11:26:24.740Z,83.95
2022-11-27T11:27:24.752Z,83.44
2022-11-27T11:28:24.695Z,83.23
2022-11-27T11:29:24.725Z,82.82
2022-11-27T11:30:24.663Z,82.92
2022-11-27T11:31:24.725Z,83.13
2022-11-27T11:32:24.663Z,83.23
2022-11-27T11:33:24.641Z,82.31
2022-11-27T11:34:24.613Z,82.62
2022-11-27T11:35:24.654Z,83.13
2022-11-27T11:36:24.581Z,82.92
2022-11-27T11:37:24.633Z,82.92
2022-11-27T11:38:24.560Z,82.62
2022-11-27T11:39:24.570Z,82.31
2022-11-27T11:40:24.562Z,82.20
2022-11-27T11:41:24.541Z,82.51
2022-11-27T11:42:24.536Z,82.71
2022-11-27T11:43:24.547Z,82.82
2022-11-27T11:44:24.493Z,82.31
2022-11-27T11:45:27.515Z,81.79
2022-11-27T11:46:25.512Z,81.69
2022-11-27T11:47:24.485Z,81.69
2022-11-27T11:48:24.478Z,81.79
2022-11-27T11:49:24.455Z,81.59
2022-11-27T11:50:24.432Z,81.28
2022-11-27T11:51:29.125Z,81.79
2022-11-27T11:52:25.375Z,82.00
2022-11-27T11:53:24.426Z,82.00
2022-11-27T11:54:24.357Z,81.48
2022-11-27T11:55:24.350Z,81.59
2022-11-27T11:56:24.359Z,82.00
2022-11-27T11:57:24.356Z,82.51
2022-11-27T11:58:24.348Z,82.00
2022-11-27T11:59:24.324Z,81.79
2022-11-27T12:00:29.844Z,81.38
2022-11-27T12:01:27.512Z,81.90
2022-11-27T12:02:24.312Z,81.48
2022-11-27T12:03:24.316Z,81.28
2022-11-27T12:04:24.240Z,81.48
2022-11-27T12:05:24.252Z,81.86
2022-11-27T12:06:24.222Z,81.86
2022-11-27T12:07:24.272Z,80.93
2022-11-27T12:08:24.261Z,81.04
2022-11-27T12:09:24.193Z,80.83
2022-11-27T12:10:24.204Z,80.83
2022-11-27T12:11:24.204Z,80.63
2022-11-27T12:12:24.117Z,80.83
2022-11-27T12:13:25.297Z,81.14
2022-11-27T12:14:24.115Z,80.93
2022-11-27T12:15:24.103Z,81.14
2022-11-27T12:16:24.130Z,81.24
2022-11-27T12:17:24.066Z,80.93
2022-11-27T12:18:24.044Z,80.63
2022-11-27T12:19:24.080Z,80.93
2022-11-27T12:20:24.026Z,80.52
2022-11-27T12:21:24.054Z,80.52
2022-11-27T12:22:24.011Z,79.87
2022-11-27T12:23:24.058Z,79.46
2022-11-27T12:24:23.974Z,79.46
2022-11-27T12:25:24.022Z,79.66
2022-11-27T12:26:23.989Z,79.87
2022-11-27T12:27:23.969Z,79.77
2022-11-27T12:28:23.915Z,79.77
2022-11-27T12:29:23.954Z,79.66
2022-11-27T12:30:23.932Z,80.07
2022-11-27T12:31:24.009Z,80.07
2022-11-27T12:32:23.894Z,80.18
2022-11-27T12:33:23.882Z,80.18
2022-11-27T12:34:23.890Z,80.79
2022-11-27T12:35:23.838Z,80.90
2022-11-27T12:36:23.849Z,80.38
2022-11-27T12:37:23.844Z,79.97
2022-11-27T12:38:23.789Z,79.77
2022-11-27T12:39:23.833Z,79.97
2022-11-27T12:40:23.766Z,80.07
2022-11-27T12:41:23.778Z,80.18
2022-11-27T12:42:23.756Z,79.66
2022-11-27T12:43:23.740Z,79.97
2022-11-27T12:44:23.724Z,80.28
2022-11-27T12:45:23.859Z,80.38
2022-11-27T12:46:23.867Z,80.58
2022-11-27T12:47:23.724Z,80.38
2022-11-27T12:48:23.649Z,80.79
2022-11-27T12:49:23.659Z,81.30
2022-11-27T12:50:23.668Z,81.00
2022-11-27T12:51:23.688Z,80.49
2022-11-27T12:52:23.667Z,80.28
2022-11-27T12:53:25.103Z,80.28
2022-11-27T12:54:23.613Z,80.49
2022-11-27T12:55:23.609Z,80.79
2022-11-27T12:56:23.632Z,80.90
2022-11-27T12:57:23.581Z,81.00
2022-11-27T12:58:23.534Z,80.58
2022-11-27T12:59:25.227Z,80.49
2022-11-27T13:00:23.508Z,80.49
2022-11-27T13:01:26.580Z,81.10
2022-11-27T13:02:23.622Z,80.58
2022-11-27T13:03:23.707Z,80.69
2022-11-27T13:04:23.529Z,80.18
2022-11-27T13:05:23.523Z,80.38
2022-11-27T13:06:23.425Z,80.18
2022-11-27T13:07:23.632Z,79.97
2022-11-27T13:08:23.454Z,79.87
2022-11-27T13:09:23.482Z,79.46
2022-11-27T13:10:23.476Z,79.36
2022-11-27T13:11:23.540Z,79.46
2022-11-27T13:12:23.411Z,79.36
2022-11-27T13:13:23.354Z,79.25
2022-11-27T13:14:23.344Z,79.15
2022-11-27T13:15:23.339Z,79.36
2022-11-27T13:16:23.361Z,79.66
2022-11-27T13:17:23.306Z,79.15
2022-11-27T13:18:23.275Z,79.36
2022-11-27T13:19:23.313Z,79.97
2022-11-27T13:20:23.270Z,79.56
2022-11-27T13:21:23.277Z,78.53
2022-11-27T13:22:23.279Z,78.64
2022-11-27T13:23:23.251Z,78.85
2022-11-27T13:24:23.220Z,78.53
2022-11-27T13:25:23.243Z,78.64
2022-11-27T13:26:26.328Z,78.64
2022-11-27T13:27:23.172Z,79.05
2022-11-27T13:28:23.151Z,78.43
2022-11-27T13:29:23.213Z,78.33
2022-11-27T13:30:23.163Z,78.12
2022-11-27T13:31:23.239Z,77.71
2022-11-27T13:32:23.140Z,77.71
2022-11-27T13:33:23.100Z,77.92
2022-11-27T13:34:23.139Z,77.30
2022-11-27T13:35:23.098Z,76.89
2022-11-27T13:36:23.049Z,76.89
2022-11-27T13:37:23.068Z,77.26
2022-11-27T13:38:23.035Z,77.17
2022-11-27T13:39:23.078Z,76.96
2022-11-27T13:40:23.010Z,77.30
2022-11-27T13:41:23.045Z,77.30
2022-11-27T13:42:23.011Z,77.00
2022-11-27T13:43:23.024Z,76.89
2022-11-27T13:44:23.039Z,77.30
2022-11-27T13:45:22.954Z,77.10
2022-11-27T13:46:23.097Z,77.40
2022-11-27T13:47:23.004Z,77.81
2022-11-27T13:48:23.934Z,77.40
2022-11-27T13:49:22.929Z,77.40
2022-11-27T13:50:26.945Z,77.51
2022-11-27T13:51:23.891Z,77.40
2022-11-27T13:52:22.883Z,77.40
2022-11-27T13:53:22.871Z,77.20
2022-11-27T13:54:28.761Z,77.51
2022-11-27T13:55:23.841Z,77.81
2022-11-27T13:56:22.794Z,77.20
2022-11-27T13:57:22.816Z,77.30
2022-11-27T13:58:22.795Z,77.51
2022-11-27T13:59:22.820Z,77.40
2022-11-27T14:00:22.835Z,77.00
2022-11-27T14:01:22.859Z,77.10
2022-11-27T14:02:22.857Z,77.40
2022-11-27T14:03:22.740Z,77.40
2022-11-27T14:04:22.763Z,76.89
2022-11-27T14:05:22.696Z,77.30
2022-11-27T14:06:22.665Z,77.20
2022-11-27T14:07:22.690Z,77.30
2022-11-27T14:08:22.721Z,77.40
2022-11-27T14:09:22.656Z,77.10
2022-11-27T14:10:22.652Z,77.71
2022-11-27T14:11:22.647Z,78.53
2022-11-27T14:12:22.634Z,79.56
2022-11-27T14:13:27.412Z,80.79
2022-11-27T14:14:23.616Z,80.63
2022-11-27T14:15:22.575Z,81.55
2022-11-27T14:16:22.632Z,82.47
2022-11-27T14:17:22.573Z,83.40
2022-11-27T14:18:22.510Z,83.09
2022-11-27T14:19:22.700Z,83.29
2022-11-27T14:20:22.534Z,83.23
2022-11-27T14:21:22.482Z,82.20
2022-11-27T14:22:22.490Z,82.41
2022-11-27T14:23:22.481Z,83.33
2022-11-27T14:24:22.494Z,82.82
2022-11-27T14:25:22.470Z,83.23
2022-11-27T14:26:22.429Z,82.82
2022-11-27T14:27:22.406Z,82.41
2022-11-27T14:28:22.430Z,82.20
2022-11-27T14:29:22.416Z,82.71
2022-11-27T14:30:22.421Z,81.90
2022-11-27T14:31:22.390Z,82.00
2022-11-27T14:32:22.367Z,82.62
2022-11-27T14:33:22.332Z,82.20
2022-11-27T14:34:24.693Z,82.92
2022-11-27T14:35:22.365Z,83.33
2022-11-27T14:36:22.285Z,83.85
2022-11-27T14:37:22.329Z,83.54
2022-11-27T14:38:22.280Z,83.44
2022-11-27T14:39:22.266Z,82.62
2022-11-27T14:40:22.308Z,82.41
2022-11-27T14:41:22.259Z,83.03
2022-11-27T14:42:26.298Z,82.92
2022-11-27T14:43:23.250Z,82.82
2022-11-27T14:44:22.190Z,83.23
2022-11-27T14:45:22.188Z,83.64
2022-11-27T14:46:22.313Z,83.23
2022-11-27T14:47:22.175Z,83.33
2022-11-27T14:48:22.163Z,83.13
2022-11-27T14:49:22.115Z,83.75
2022-11-27T14:50:22.138Z,83.95
2022-11-27T14:51:22.135Z,83.95
2022-11-27T14:52:22.108Z,83.78
2022-11-27T14:53:22.073Z,83.95
2022-11-27T14:54:22.130Z,83.99
2022-11-27T14:55:22.082Z,83.33
2022-11-27T14:56:22.064Z,83.54
2022-11-27T14:57:22.033Z,83.75
2022-11-27T14:58:22.065Z,83.85
2022-11-27T14:59:22.028Z,83.99
2022-11-27T15:00:22.061Z,83.78
2022-11-27T15:01:21.994Z,83.78
2022-11-27T15:02:27.614Z,83.99
2022-11-27T15:03:22.975Z,83.68
2022-11-27T15:04:21.942Z,83.89
2022-11-27T15:05:21.949Z,83.99
2022-11-27T15:06:21.932Z,83.58
2022-11-27T15:07:22.060Z,83.89
2022-11-27T15:08:22.003Z,83.78
2022-11-27T15:09:31.680Z,83.68
2022-11-27T15:10:22.919Z,83.89
2022-11-27T15:11:49.236Z,83.99
2022-11-27T15:12:22.865Z,84.20
2022-11-27T15:13:21.803Z,84.09
2022-11-27T15:14:21.814Z,84.40
2022-11-27T15:15:21.840Z,83.99
2022-11-27T15:16:21.882Z,84.09
2022-11-27T15:17:21.783Z,83.27
2022-11-27T15:18:21.760Z,83.48
2022-11-27T15:19:21.790Z,83.99
2022-11-27T15:20:21.761Z,83.78
2022-11-27T15:21:21.730Z,84.09
2022-11-27T15:22:21.738Z,84.40
2022-11-27T15:23:21.767Z,84.81
2022-11-27T15:24:21.708Z,85.63
2022-11-27T15:25:21.661Z,85.94
2022-11-27T15:26:25.167Z,86.35
2022-11-27T15:27:21.659Z,85.53
2022-11-27T15:28:21.633Z,85.63
2022-11-27T15:29:21.627Z,86.97
2022-11-27T15:30:21.668Z,87.28
2022-11-27T15:31:21.777Z,87.49
2022-11-27T15:32:23.610Z,87.52
2022-11-27T15:33:21.586Z,87.52
2022-11-27T15:34:21.554Z,88.14
2022-11-27T15:35:21.560Z,88.45
2022-11-27T15:36:21.586Z,88.96
2022-11-27T15:37:21.500Z,88.56
2022-11-27T15:38:21.535Z,88.86
2022-11-27T15:39:21.545Z,88.76
2022-11-27T15:40:21.489Z,88.86
2022-11-27T15:41:21.475Z,88.66
2022-11-27T15:42:21.508Z,88.66
2022-11-27T15:43:21.429Z,88.86
2022-11-27T15:44:21.424Z,89.17
2022-11-27T15:45:21.465Z,89.11
2022-11-27T15:46:21.451Z,89.31
2022-11-27T15:47:21.395Z,89.73
2022-11-27T15:48:21.434Z,89.73
2022-11-27T15:49:21.374Z,89.73
2022-11-27T15:50:21.357Z,89.94
2022-11-27T15:51:21.373Z,89.94
2022-11-27T15:52:21.335Z,90.14
2022-11-27T15:53:21.323Z,90.24
2022-11-27T15:54:21.317Z,90.55
2022-11-27T15:55:21.275Z,90.86
2022-11-27T15:56:21.292Z,90.86
2022-11-27T15:57:21.272Z,91.17
2022-11-27T15:58:21.302Z,91.27
2022-11-27T15:59:21.227Z,91.06
2022-11-27T16:00:21.281Z,90.75
2022-11-27T16:01:21.253Z,90.55
2022-11-27T16:02:21.245Z,90.66
2022-11-27T16:03:21.174Z,91.06
2022-11-27T16:04:21.211Z,91.27
2022-11-27T16:05:21.156Z,91.47
2022-11-27T16:06:21.144Z,91.68
2022-11-27T16:07:21.165Z,91.58
2022-11-27T16:08:21.222Z,91.47
2022-11-27T16:09:21.092Z,91.47
2022-11-27T16:10:21.111Z,91.17
2022-11-27T16:11:21.073Z,90.66
2022-11-27T16:12:21.083Z,91.06
2022-11-27T16:13:21.069Z,91.06
2022-11-27T16:14:21.089Z,90.86
2022-11-27T16:15:23.282Z,90.66
2022-11-27T16:16:21.130Z,90.24
2022-11-27T16:17:21.013Z,90.03
2022-11-27T16:18:20.993Z,89.94
2022-11-27T16:19:20.963Z,90.14
2022-11-27T16:20:20.980Z,90.55
2022-11-27T16:21:23.314Z,90.66
2022-11-27T16:22:21.966Z,90.34
2022-11-27T16:23:20.942Z,90.24
2022-11-27T16:24:20.987Z,90.45
2022-11-27T16:25:20.936Z,90.14
2022-11-27T16:26:20.908Z,90.34
2022-11-27T16:27:20.893Z,90.45
2022-11-27T16:28:20.884Z,90.34
2022-11-27T16:29:20.840Z,89.83
2022-11-27T16:30:20.850Z,89.94
2022-11-27T16:31:20.896Z,90.03
2022-11-27T16:32:20.822Z,89.94
2022-11-27T16:33:20.813Z,90.24
2022-11-27T16:34:20.820Z,90.14
2022-11-27T16:35:20.787Z,90.03
2022-11-27T16:36:20.785Z,89.94
2022-11-27T16:37:20.738Z,90.03
2022-11-27T16:38:20.766Z,90.03
2022-11-27T16:39:20.705Z,89.83
2022-11-27T16:40:20.726Z,89.83
2022-11-27T16:41:20.737Z,90.14
2022-11-27T16:42:20.687Z,90.34
2022-11-27T16:43:20.851Z,90.55
2022-11-27T16:44:20.720Z,90.66
2022-11-27T16:45:20.713Z,90.45
2022-11-27T16:46:20.703Z,90.39
2022-11-27T16:47:20.598Z,90.03
2022-11-27T16:48:20.604Z,89.97
2022-11-27T16:49:20.578Z,90.14
2022-11-27T16:50:20.580Z,90.39
2022-11-27T16:51:20.615Z,90.08
2022-11-27T16:52:20.581Z,89.73
2022-11-27T16:53:20.560Z,89.73
2022-11-27T16:54:20.533Z,89.83
2022-11-27T16:55:20.542Z,90.03
2022-11-27T16:56:20.515Z,89.62
2022-11-27T16:57:20.504Z,89.83
2022-11-27T16:58:20.518Z,89.62
2022-11-27T16:59:20.486Z,89.31
2022-11-27T17:00:20.454Z,89.22
2022-11-27T17:01:20.546Z,89.31
2022-11-27T17:02:20.586Z,89.31
2022-11-27T17:03:20.401Z,89.22
2022-11-27T17:04:20.422Z,89.11
2022-11-27T17:05:20.374Z,89.42
2022-11-27T17:06:20.383Z,89.73
2022-11-27T17:07:20.424Z,89.73
2022-11-27T17:08:20.351Z,89.77
2022-11-27T17:09:20.350Z,89.73
2022-11-27T17:10:20.332Z,89.77
2022-11-27T17:11:20.342Z,89.46
2022-11-27T17:12:20.330Z,89.36
2022-11-27T17:13:20.285Z,89.46
2022-11-27T17:14:20.328Z,89.77
2022-11-27T17:15:20.268Z,89.36
2022-11-27T17:16:20.315Z,89.36
2022-11-27T17:17:20.231Z,89.77
2022-11-27T17:18:20.248Z,89.56
2022-11-27T17:19:20.230Z,89.67
2022-11-27T17:20:20.190Z,89.87
2022-11-27T17:21:20.219Z,89.97
2022-11-27T17:22:20.201Z,89.46
2022-11-27T17:23:20.161Z,89.36
2022-11-27T17:24:20.206Z,89.15
2022-11-27T17:25:20.140Z,89.25
2022-11-27T17:26:20.151Z,89.36
2022-11-27T17:27:20.089Z,89.36
2022-11-27T17:28:20.129Z,89.25
2022-11-27T17:29:20.105Z,89.05
2022-11-27T17:30:20.079Z,89.15
2022-11-27T17:31:20.173Z,89.25
2022-11-27T17:32:20.083Z,89.36
2022-11-27T17:33:20.044Z,89.25
2022-11-27T17:34:20.018Z,89.46
2022-11-27T17:35:20.015Z,89.46